Time;durP1;ratioP1;P1;durP2;ratioP2;P2;SDS_P1;SDS_P2;PMS_P1;PMS_P2;Temp;Humidity;BMP_temperature;BMP_pressure;BME280_temperature;BME280_humidity;BME280_pressure;Samples;Min_cycle;Max_cycle;Signal;HPM_P1;HPM_P2
2024/01/14 00:01:53;;;;;;;16.52;2.53;;;5.50;99.90;;;;;;6239161;23;20020;-78
2024/01/14 00:04:19;;;;;;;15.25;2.20;;;5.60;99.90;;;;;;6240161;23;20019;-78
2024/01/14 00:06:45;;;;;;;13.88;2.25;;;5.40;99.90;;;;;;6238273;23;20087;-78
2024/01/14 00:09:12;;;;;;;12.57;2.05;;;5.50;99.90;;;;;;6213009;23;20491;-77
2024/01/14 00:11:38;;;;;;;14.60;2.17;;;5.60;99.90;;;;;;6239250;23;20016;-77
2024/01/14 00:14:03;;;;;;;17.52;2.17;;;5.50;99.90;;;;;;6240352;23;20083;-78
2024/01/14 00:16:34;;;;;;;11.18;1.90;;;5.60;99.90;;;;;;6239135;23;20753;-77
2024/01/14 00:19:01;;;;;;;13.23;2.08;;;5.50;99.90;;;;;;6237098;23;20016;-79
2024/01/14 00:21:27;;;;;;;10.98;2.00;;;5.10;99.90;;;;;;6238741;23;20445;-77
2024/01/14 00:23:52;;;;;;;7.72;2.22;;;5.20;99.90;;;;;;6212064;23;20047;-77
2024/01/14 00:26:18;;;;;;;12.45;2.72;;;5.20;99.90;;;;;;6238658;23;20031;-77
2024/01/14 00:28:43;;;;;;;8.70;2.03;;;5.20;99.90;;;;;;6239256;23;20091;-77
2024/01/14 00:31:09;;;;;;;8.27;1.63;;;4.70;99.90;;;;;;6237477;23;20243;-77
2024/01/14 00:33:35;;;;;;;11.32;2.00;;;5.00;99.90;;;;;;6239642;23;20012;-77
2024/01/14 00:36:04;;;;;;;7.78;2.20;;;4.90;99.90;;;;;;6239545;23;20012;-77
2024/01/14 00:38:30;;;;;;;7.47;1.08;;;4.70;99.90;;;;;;6239709;23;20016;-77
2024/01/14 00:40:55;;;;;;;4.93;0.90;;;4.60;99.90;;;;;;6239335;23;20019;-77
2024/01/14 00:43:21;;;;;;;8.10;1.30;;;5.10;99.90;;;;;;6238952;22;20460;-77
2024/01/14 00:45:46;;;;;;;7.90;1.03;;;4.70;99.90;;;;;;6239719;23;20008;-78
2024/01/14 00:48:12;;;;;;;11.60;1.40;;;4.90;99.90;;;;;;6237729;23;20352;-77
2024/01/14 00:50:38;;;;;;;12.13;1.88;;;4.80;99.90;;;;;;6239286;22;20046;-77
2024/01/14 00:53:04;;;;;;;10.73;1.17;;;5.00;99.90;;;;;;6239851;23;20453;-77
2024/01/14 00:55:29;;;;;;;12.87;1.20;;;4.60;99.90;;;;;;6239540;23;20018;-77
2024/01/14 00:57:55;;;;;;;6.20;0.87;;;4.70;99.90;;;;;;6238999;23;20769;-78
2024/01/14 01:00:21;;;;;;;10.20;0.95;;;5.00;99.90;;;;;;6212147;23;20027;-78
2024/01/14 01:02:47;;;;;;;8.30;1.10;;;4.90;99.90;;;;;;6237009;23;20016;-78
2024/01/14 01:05:13;;;;;;;15.70;1.53;;;4.70;99.90;;;;;;6237845;23;20004;-78
2024/01/14 01:07:39;;;;;;;11.18;1.38;;;5.00;99.90;;;;;;6239054;23;20615;-77
2024/01/14 01:10:05;;;;;;;19.88;1.92;;;4.30;99.90;;;;;;6238426;23;20011;-78
2024/01/14 01:12:31;;;;;;;10.90;1.60;;;5.00;99.90;;;;;;6236327;23;20206;-78
2024/01/14 01:14:57;;;;;;;12.80;1.80;;;4.60;99.90;;;;;;6239517;23;20024;-77
2024/01/14 01:17:22;;;;;;;10.35;1.95;;;4.60;99.90;;;;;;6238788;23;20015;-77
2024/01/14 01:19:48;;;;;;;10.13;1.30;;;4.30;99.90;;;;;;6239721;23;20020;-78
2024/01/14 01:22:13;;;;;;;11.13;2.17;;;4.90;99.90;;;;;;6237686;23;20090;-77
2024/01/14 01:24:39;;;;;;;19.15;1.83;;;4.30;99.90;;;;;;6239420;23;20231;-78
2024/01/14 01:27:05;;;;;;;13.93;2.25;;;4.40;99.90;;;;;;6238665;23;20013;-78
2024/01/14 01:29:31;;;;;;;11.98;1.52;;;4.50;99.90;;;;;;6239074;23;20075;-78
2024/01/14 01:31:57;;;;;;;6.22;1.27;;;4.80;99.90;;;;;;6239074;23;20101;-78
2024/01/14 01:34:22;;;;;;;11.97;1.57;;;5.00;99.90;;;;;;6237519;23;20019;-78
2024/01/14 01:36:48;;;;;;;11.13;1.67;;;4.60;99.90;;;;;;6239384;23;20228;-78
2024/01/14 01:39:14;;;;;;;10.63;1.60;;;4.80;99.90;;;;;;6237873;23;20266;-78
2024/01/14 01:41:40;;;;;;;13.13;2.20;;;4.10;99.90;;;;;;6211672;23;20020;-78
2024/01/14 01:44:05;;;;;;;11.00;1.65;;;4.60;99.90;;;;;;6238847;23;20428;-78
2024/01/14 01:46:32;;;;;;;9.63;1.60;;;4.50;99.90;;;;;;6237585;23;20012;-78
2024/01/14 01:48:59;;;;;;;9.00;1.48;;;4.20;99.90;;;;;;6212406;23;20024;-78
2024/01/14 01:51:25;;;;;;;9.80;1.83;;;4.20;99.90;;;;;;6238899;22;20514;-78
2024/01/14 01:53:51;;;;;;;7.32;1.60;;;3.90;99.90;;;;;;6237704;23;20345;-78
2024/01/14 01:56:17;;;;;;;10.23;2.30;;;3.80;99.90;;;;;;6239121;23;20012;-78
2024/01/14 01:58:43;;;;;;;11.23;1.88;;;4.10;99.90;;;;;;6238447;23;20184;-78
2024/01/14 02:01:09;;;;;;;10.38;2.33;;;4.20;99.90;;;;;;6236760;23;20642;-78
2024/01/14 02:03:36;;;;;;;8.60;1.70;;;4.30;99.90;;;;;;6238500;23;20468;-79
2024/01/14 02:06:02;;;;;;;13.43;1.90;;;3.90;99.90;;;;;;6239452;23;20012;-78
2024/01/14 02:08:28;;;;;;;;;;;4.00;99.90;;;;;;6239938;23;20314;-78
2024/01/14 02:10:54;;;;;;;13.13;1.80;;;3.90;99.90;;;;;;6241174;23;19941;-78
2024/01/14 02:13:20;;;;;;;8.25;1.55;;;3.80;99.90;;;;;;6238705;23;20047;-78
2024/01/14 02:15:45;;;;;;;11.15;1.55;;;3.90;99.90;;;;;;6239494;23;20020;-78
2024/01/14 02:18:11;;;;;;;14.33;1.90;;;3.90;99.90;;;;;;6240859;23;20333;-78
2024/01/14 02:20:37;;;;;;;9.68;1.85;;;4.20;99.90;;;;;;6239327;23;20021;-78
2024/01/14 02:23:06;;;;;;;13.15;2.25;;;4.20;99.90;;;;;;6239029;23;20097;-79
2024/01/14 02:25:31;;;;;;;12.70;1.77;;;3.80;99.90;;;;;;6239009;23;20012;-79
2024/01/14 02:27:57;;;;;;;13.50;2.00;;;3.90;99.90;;;;;;6237734;23;20058;-78
2024/01/14 02:30:23;;;;;;;13.40;1.77;;;4.10;99.90;;;;;;6241207;22;20013;-78
2024/01/14 02:32:50;;;;;;;10.05;1.75;;;4.00;99.90;;;;;;6241094;23;20016;-78
2024/01/14 02:35:16;;;;;;;17.05;2.13;;;3.80;99.90;;;;;;6238780;23;20012;-78
2024/01/14 02:37:44;;;;;;;11.77;2.42;;;3.80;99.90;;;;;;6240812;23;20016;-78
2024/01/14 02:40:11;;;;;;;8.73;1.75;;;3.80;99.90;;;;;;6238851;23;20050;-78
2024/01/14 02:42:37;;;;;;;;;;;3.80;99.90;;;;;;6240215;23;20020;-78
2024/01/14 02:45:03;;;;;;;12.65;1.95;;;4.00;99.90;;;;;;6240658;23;19911;-78
2024/01/14 02:47:29;;;;;;;17.75;3.03;;;4.10;99.90;;;;;;6241237;23;20008;-78
2024/01/14 02:49:55;;;;;;;10.73;2.00;;;3.90;99.90;;;;;;6240977;23;20016;-78
2024/01/14 02:52:20;;;;;;;8.50;1.70;;;4.20;99.90;;;;;;6239968;22;20746;-78
2024/01/14 02:54:46;;;;;;;12.20;2.00;;;4.10;99.90;;;;;;6238432;23;20255;-78
2024/01/14 02:57:11;;;;;;;13.15;2.30;;;4.30;99.90;;;;;;6237656;23;20400;-78
2024/01/14 02:59:37;;;;;;;18.53;2.67;;;4.20;99.90;;;;;;6238686;23;20526;-78
2024/01/14 03:02:03;;;;;;;12.45;1.30;;;4.30;99.90;;;;;;6236115;23;20366;-78
2024/01/14 03:04:29;;;;;;;12.63;2.33;;;4.20;99.90;;;;;;6239378;23;20101;-78
2024/01/14 03:06:55;;;;;;;12.82;1.88;;;4.20;99.90;;;;;;6238805;23;20020;-78
2024/01/14 03:09:21;;;;;;;10.20;2.00;;;4.20;99.90;;;;;;6238530;23;20440;-78
2024/01/14 03:11:46;;;;;;;;;;;4.00;99.90;;;;;;6238473;23;20058;-78
2024/01/14 03:14:12;;;;;;;12.30;1.60;;;4.20;99.90;;;;;;6240780;23;19915;-78
2024/01/14 03:16:38;;;;;;;15.00;2.55;;;4.20;99.90;;;;;;6239586;23;20441;-78
2024/01/14 03:19:03;;;;;;;16.55;2.97;;;3.90;99.90;;;;;;6238416;23;20012;-78
2024/01/14 03:21:29;;;;;;;11.50;2.08;;;4.00;99.90;;;;;;6238225;23;20476;-78
2024/01/14 03:23:54;;;;;;;11.63;2.65;;;3.90;99.90;;;;;;6239919;23;20334;-78
2024/01/14 03:26:20;;;;;;;12.20;1.60;;;4.10;99.90;;;;;;6239359;23;20465;-78
2024/01/14 03:28:46;;;;;;;18.13;2.78;;;4.20;99.90;;;;;;6240413;23;20012;-78
2024/01/14 03:31:16;;;;;;;14.52;2.00;;;3.90;99.90;;;;;;6239844;23;20453;-78
2024/01/14 03:33:42;;;;;;;14.52;2.80;;;4.00;99.90;;;;;;6239038;23;20016;-78
2024/01/14 03:36:11;;;;;;;15.45;2.30;;;4.00;99.90;;;;;;6238366;23;20702;-78
2024/01/14 03:38:37;;;;;;;11.73;1.98;;;4.00;99.90;;;;;;6238508;23;20044;-78
2024/01/14 03:41:02;;;;;;;14.27;2.20;;;4.00;99.90;;;;;;6237788;23;20438;-79
2024/01/14 03:43:28;;;;;;;14.98;1.95;;;4.30;99.90;;;;;;6237538;23;20019;-79
2024/01/14 03:45:54;;;;;;;13.13;2.10;;;4.20;99.90;;;;;;6240407;23;20133;-79
2024/01/14 03:48:19;;;;;;;14.00;2.80;;;4.40;99.90;;;;;;6213406;23;20023;-79
2024/01/14 03:50:45;;;;;;;14.60;2.20;;;4.10;99.90;;;;;;6238907;22;20016;-78
2024/01/14 03:53:11;;;;;;;14.35;1.95;;;4.00;99.90;;;;;;6238371;23;20023;-79
2024/01/14 03:55:36;;;;;;;12.50;1.70;;;4.00;99.90;;;;;;6237794;23;20012;-78
2024/01/14 03:58:02;;;;;;;15.40;2.37;;;3.90;99.90;;;;;;6237663;23;20020;-79
2024/01/14 04:00:28;;;;;;;12.70;2.00;;;3.80;99.90;;;;;;6239993;23;20463;-78
2024/01/14 04:02:53;;;;;;;20.17;2.70;;;3.90;99.90;;;;;;6240124;22;20361;-78
2024/01/14 04:05:19;;;;;;;10.20;1.88;;;3.80;99.90;;;;;;6239453;23;20046;-80
2024/01/14 04:07:45;;;;;;;11.03;2.03;;;3.60;99.90;;;;;;6236537;23;20016;-80
2024/01/14 04:10:12;;;;;;;13.73;1.80;;;3.50;99.90;;;;;;6238717;22;20560;-79
2024/01/14 04:12:40;;;;;;;10.60;1.60;;;3.50;99.90;;;;;;6236272;23;20322;-79
2024/01/14 04:15:06;;;;;;;14.65;2.55;;;3.80;99.90;;;;;;6237069;23;20117;-79
2024/01/14 04:17:32;;;;;;;17.38;2.20;;;3.60;99.90;;;;;;6237113;23;20016;-79
2024/01/14 04:19:59;;;;;;;10.05;1.75;;;3.60;99.90;;;;;;6239973;22;20012;-79
2024/01/14 04:22:24;;;;;;;;;;;3.50;99.90;;;;;;6237384;23;20376;-79
2024/01/14 04:24:50;;;;;;;10.32;1.70;;;3.20;99.90;;;;;;6211344;23;19916;-78
2024/01/14 04:27:16;;;;;;;12.82;1.58;;;3.00;99.90;;;;;;6236668;23;20468;-79
2024/01/14 04:29:41;;;;;;;15.60;1.83;;;3.30;99.90;;;;;;6236152;23;20012;-80
2024/01/14 04:32:07;;;;;;;8.10;1.30;;;3.30;99.90;;;;;;6237078;23;20056;-80
2024/01/14 04:34:33;;;;;;;13.40;1.70;;;2.90;99.90;;;;;;6212587;23;20424;-79
2024/01/14 04:36:58;;;;;;;14.95;2.53;;;3.30;99.90;;;;;;6236216;23;20400;-80
2024/01/14 04:39:24;;;;;;;10.43;2.03;;;2.90;99.90;;;;;;6239382;23;20012;-79
2024/01/14 04:41:50;;;;;;;10.02;1.23;;;3.30;99.90;;;;;;6236845;23;20447;-80
2024/01/14 04:44:15;;;;;;;8.30;1.10;;;2.90;99.90;;;;;;6237701;23;20012;-80
2024/01/14 04:46:45;;;;;;;11.47;1.40;;;3.20;99.90;;;;;;6239707;23;20242;-80
2024/01/14 04:49:10;;;;;;;8.95;1.75;;;2.90;99.90;;;;;;6237945;23;20750;-79
2024/01/14 04:51:36;;;;;;;9.77;1.70;;;3.20;99.90;;;;;;6237080;23;20056;-80
2024/01/14 04:54:02;;;;;;;13.63;1.75;;;3.20;99.90;;;;;;6239629;23;20047;-80
2024/01/14 04:56:28;;;;;;;;;;;3.20;99.90;;;;;;6239217;23;20130;-79
2024/01/14 04:58:54;;;;;;;9.80;1.70;;;3.20;99.90;;;;;;6237439;23;20345;-79
2024/01/14 05:01:20;;;;;;;15.90;2.30;;;3.10;99.90;;;;;;6236518;23;20039;-78
2024/01/14 05:03:45;;;;;;;12.30;1.65;;;3.20;99.90;;;;;;6237513;23;20074;-79
2024/01/14 05:06:11;;;;;;;14.10;2.85;;;3.10;99.90;;;;;;6234348;23;20020;-79
2024/01/14 05:08:40;;;;;;;9.55;2.13;;;2.70;99.90;;;;;;6235512;23;20073;-79
2024/01/14 05:11:06;;;;;;;14.57;1.90;;;2.70;99.90;;;;;;6211939;23;20011;-79
2024/01/14 05:13:32;;;;;;;13.52;1.58;;;3.20;99.90;;;;;;6211287;23;20008;-79
2024/01/14 05:15:57;;;;;;;13.00;1.67;;;2.80;99.90;;;;;;6237369;23;20047;-79
2024/01/14 05:18:23;;;;;;;9.15;1.83;;;2.70;99.90;;;;;;6236852;23;20015;-79
2024/01/14 05:20:49;;;;;;;11.13;1.58;;;3.10;99.90;;;;;;6236205;23;20012;-79
2024/01/14 05:23:14;;;;;;;11.98;1.95;;;2.80;99.90;;;;;;6237543;23;20020;-80
2024/01/14 05:25:41;;;;;;;9.07;1.73;;;2.60;99.90;;;;;;6237294;23;20047;-80
2024/01/14 05:28:07;;;;;;;12.60;2.17;;;2.90;99.90;;;;;;6212189;23;20008;-81
2024/01/14 05:30:33;;;;;;;10.15;1.70;;;3.10;99.90;;;;;;6237600;23;20008;-80
2024/01/14 05:32:58;;;;;;;9.83;1.50;;;2.60;99.90;;;;;;6237710;23;20039;-81
2024/01/14 05:35:24;;;;;;;13.77;2.00;;;2.90;99.90;;;;;;6237753;23;20250;-80
2024/01/14 05:37:50;;;;;;;13.32;1.35;;;3.30;99.90;;;;;;6238599;23;20019;-81
2024/01/14 05:40:15;;;;;;;14.27;2.33;;;3.30;99.90;;;;;;6237522;23;20017;-81
2024/01/14 05:42:42;;;;;;;13.70;2.03;;;3.30;99.90;;;;;;6236823;23;20095;-80
2024/01/14 05:45:10;;;;;;;15.25;2.35;;;3.00;99.90;;;;;;6214217;23;20019;-80
2024/01/14 05:47:36;;;;;;;8.93;1.77;;;2.70;99.90;;;;;;6214679;23;20106;-81
2024/01/14 05:50:01;;;;;;;10.32;2.40;;;3.30;99.90;;;;;;6239676;23;20342;-77
2024/01/14 05:52:27;;;;;;;13.27;2.42;;;3.40;99.90;;;;;;6238235;23;20197;-79
2024/01/14 05:54:53;;;;;;;8.07;1.48;;;3.30;99.90;;;;;;6238873;23;20598;-77
2024/01/14 05:57:18;;;;;;;9.27;1.50;;;2.80;99.90;;;;;;6213819;23;20058;-77
2024/01/14 05:59:44;;;;;;;9.32;1.48;;;2.80;99.90;;;;;;6239425;23;20065;-79
2024/01/14 06:02:10;;;;;;;9.20;1.75;;;2.90;99.90;;;;;;6239224;23;20075;-79
2024/01/14 06:04:35;;;;;;;8.20;1.47;;;2.80;99.90;;;;;;6239258;23;20464;-79
2024/01/14 06:07:01;;;;;;;12.25;1.63;;;3.30;99.90;;;;;;6238676;23;20325;-79
2024/01/14 06:09:27;;;;;;;14.15;1.98;;;3.30;99.90;;;;;;6239299;23;20012;-79
2024/01/14 06:11:53;;;;;;;10.15;1.85;;;2.70;99.90;;;;;;6238736;23;20020;-79
2024/01/14 06:14:18;;;;;;;8.70;2.30;;;2.70;99.90;;;;;;6239760;23;20055;-79
2024/01/14 06:16:44;;;;;;;9.27;1.73;;;3.30;99.90;;;;;;6213876;23;20040;-78
2024/01/14 06:19:09;;;;;;;12.88;2.25;;;2.70;99.90;;;;;;6238620;23;20039;-79
2024/01/14 06:21:43;;;;;;;11.13;1.65;;;3.40;99.90;;;;;;6239658;23;20028;-79
2024/01/14 06:24:09;;;;;;;10.52;1.52;;;2.70;99.90;;;;;;6213945;23;20062;-78
2024/01/14 06:26:35;;;;;;;9.50;1.95;;;2.70;99.90;;;;;;6238643;23;20012;-79
2024/01/14 06:29:00;;;;;;;12.38;2.85;;;2.70;99.90;;;;;;6213956;23;20023;-79
2024/01/14 06:31:26;;;;;;;7.72;1.85;;;3.40;99.90;;;;;;6213911;23;20496;-80
2024/01/14 06:33:52;;;;;;;8.85;1.77;;;3.30;99.90;;;;;;6238945;23;20012;-81
2024/01/14 06:36:20;;;;;;;15.93;2.25;;;2.70;99.90;;;;;;6238690;23;20016;-80
2024/01/14 06:38:46;;;;;;;12.40;2.25;;;3.30;99.90;;;;;;6239122;23;20018;-79
2024/01/14 06:41:25;;;;;;;9.40;1.67;;;3.30;99.90;;;;;;6242049;23;20048;-79
2024/01/14 06:43:51;;;;;;;9.13;1.58;;;3.40;99.90;;;;;;6239766;23;20014;-79
2024/01/14 06:46:16;;;;;;;10.32;2.22;;;2.60;99.90;;;;;;6239684;23;20009;-79
2024/01/14 06:48:42;;;;;;;9.07;1.83;;;3.10;99.90;;;;;;6213684;23;20016;-79
2024/01/14 06:51:08;;;;;;;9.60;1.50;;;3.40;99.90;;;;;;6239651;23;20028;-79
2024/01/14 06:53:33;;;;;;;12.75;1.95;;;2.50;99.90;;;;;;6239770;23;20334;-80
2024/01/14 06:56:00;;;;;;;12.93;1.77;;;2.60;99.90;;;;;;6239175;23;20008;-79
2024/01/14 06:58:26;;;;;;;12.43;1.92;;;3.10;99.90;;;;;;6239265;23;20066;-79
2024/01/14 07:00:52;;;;;;;12.83;1.87;;;2.80;99.90;;;;;;6239324;23;20024;-80
2024/01/14 07:03:17;;;;;;;11.63;1.90;;;3.30;99.90;;;;;;6238635;23;20034;-80
2024/01/14 07:05:43;;;;;;;13.60;2.50;;;2.40;99.90;;;;;;6240248;23;20100;-79
2024/01/14 07:08:09;;;;;;;11.30;1.73;;;2.90;99.90;;;;;;6214467;23;20015;-80
2024/01/14 07:10:35;;;;;;;16.50;1.88;;;3.00;99.90;;;;;;6239975;23;20012;-79
2024/01/14 07:13:01;;;;;;;13.18;2.17;;;2.40;99.90;;;;;;6239359;23;20115;-80
2024/01/14 07:15:27;;;;;;;12.35;1.67;;;2.40;99.90;;;;;;6241844;23;20016;-79
2024/01/14 07:17:52;;;;;;;7.78;1.40;;;2.90;99.90;;;;;;6238902;23;20046;-80
2024/01/14 07:20:18;;;;;;;12.60;2.28;;;3.30;99.90;;;;;;6239467;23;20027;-80
2024/01/14 07:22:43;;;;;;;9.27;1.63;;;2.50;99.90;;;;;;6213356;23;20322;-79
2024/01/14 07:25:10;;;;;;;10.98;1.83;;;3.20;99.90;;;;;;6239410;23;20243;-79
2024/01/14 07:27:36;;;;;;;9.80;1.30;;;3.10;99.90;;;;;;6238645;23;20012;-79
2024/01/14 07:30:03;;;;;;;6.60;1.50;;;2.30;99.90;;;;;;6238902;23;20070;-80
2024/01/14 07:32:28;;;;;;;11.85;1.63;;;2.20;99.90;;;;;;6238061;23;20019;-80
2024/01/14 07:34:54;;;;;;;7.10;1.37;;;2.20;99.90;;;;;;6239287;23;20008;-80
2024/01/14 07:37:20;;;;;;;14.13;3.25;;;2.80;99.90;;;;;;6239137;23;20016;-80
2024/01/14 07:39:46;;;;;;;12.43;1.67;;;3.10;99.90;;;;;;6213787;23;20024;-80
2024/01/14 07:42:12;;;;;;;11.25;2.47;;;3.00;99.90;;;;;;6240285;23;20337;-80
2024/01/14 07:44:38;;;;;;;14.88;2.47;;;2.30;99.90;;;;;;6214293;23;20020;-81
2024/01/14 07:47:03;;;;;;;13.95;2.53;;;3.20;99.90;;;;;;6213206;23;20100;-79
2024/01/14 07:49:29;;;;;;;14.27;1.77;;;2.30;99.90;;;;;;6239223;23;20691;-80
2024/01/14 07:51:55;;;;;;;13.70;1.80;;;2.30;99.90;;;;;;6239078;23;20024;-80
2024/01/14 07:54:20;;;;;;;11.38;1.60;;;3.30;99.90;;;;;;6239080;23;20455;-80
2024/01/14 07:56:46;;;;;;;15.90;2.23;;;3.00;99.90;;;;;;6238417;23;20016;-80
2024/01/14 07:59:12;;;;;;;11.48;2.40;;;2.40;99.90;;;;;;6238653;23;20012;-80
2024/01/14 08:01:38;;;;;;;7.60;1.40;;;3.30;99.90;;;;;;6238689;23;20066;-80
2024/01/14 08:04:03;;;;;;;6.30;1.48;;;2.60;99.90;;;;;;6238963;23;20016;-81
2024/01/14 08:06:29;;;;;;;13.85;1.60;;;2.40;99.90;;;;;;6235279;23;20016;-80
2024/01/14 08:08:55;;;;;;;8.65;2.47;;;3.30;99.90;;;;;;6237211;23;20091;-81
2024/01/14 08:11:21;;;;;;;6.93;1.27;;;2.60;99.90;;;;;;6212939;23;20015;-80
2024/01/14 08:13:47;;;;;;;9.82;1.70;;;2.50;99.90;;;;;;6237171;23;20016;-80
2024/01/14 08:16:14;;;;;;;14.63;2.25;;;2.20;99.90;;;;;;6237102;23;20079;-80
2024/01/14 08:18:40;;;;;;;14.07;2.55;;;3.20;99.90;;;;;;6237673;23;20008;-80
2024/01/14 08:21:07;;;;;;;;;;;3.20;99.90;;;;;;6213254;23;20394;-80
2024/01/14 08:23:35;;;;;;;15.02;2.13;;;3.10;99.90;;;;;;6237066;23;19916;-81
2024/01/14 08:26:01;;;;;;;7.05;1.40;;;2.20;99.90;;;;;;6237484;23;20004;-80
2024/01/14 08:28:29;;;;;;;8.45;1.40;;;2.20;99.90;;;;;;6237661;23;20016;-80
2024/01/14 08:30:54;;;;;;;11.93;1.67;;;3.10;99.90;;;;;;6237744;23;20020;-81
2024/01/14 08:33:20;;;;;;;7.77;1.40;;;3.00;99.90;;;;;;6237863;23;20435;-81
2024/01/14 08:35:46;;;;;;;11.40;1.85;;;2.80;99.90;;;;;;6237814;23;20054;-80
2024/01/14 08:38:11;;;;;;;7.17;1.30;;;2.30;99.90;;;;;;6239003;23;20018;-80
2024/01/14 08:40:37;;;;;;;9.57;1.27;;;2.30;99.90;;;;;;6237014;23;20387;-80
2024/01/14 08:43:02;;;;;;;6.70;1.40;;;3.10;99.90;;;;;;6212993;23;20090;-80
2024/01/14 08:45:28;;;;;;;5.85;1.60;;;2.20;99.90;;;;;;6238018;23;20012;-81
2024/01/14 08:47:54;;;;;;;7.82;1.65;;;3.10;99.90;;;;;;6238250;23;20062;-80
2024/01/14 08:50:20;;;;;;;9.10;1.43;;;2.80;99.90;;;;;;6213186;22;20008;-80
2024/01/14 08:52:46;;;;;;;7.50;1.13;;;3.20;99.90;;;;;;6238813;23;20035;-80
2024/01/14 08:55:11;;;;;;;7.20;1.37;;;2.50;99.90;;;;;;6238031;23;20016;-81
2024/01/14 08:57:38;;;;;;;8.43;1.27;;;3.20;99.90;;;;;;6238192;23;20243;-80
2024/01/14 09:00:05;;;;;;;10.45;1.73;;;2.30;99.90;;;;;;6237464;23;20020;-80
2024/01/14 09:02:31;;;;;;;9.63;1.58;;;3.20;99.90;;;;;;6237656;23;20040;-79
2024/01/14 09:04:57;;;;;;;10.43;1.88;;;2.70;99.90;;;;;;6234308;23;20027;-79
2024/01/14 09:07:22;;;;;;;5.40;1.15;;;3.30;99.90;;;;;;6237917;23;20020;-80
2024/01/14 09:09:48;;;;;;;7.17;1.03;;;2.40;99.90;;;;;;6236762;23;20012;-80
2024/01/14 09:12:14;;;;;;;7.47;1.52;;;3.10;99.90;;;;;;6234187;23;20245;-81
2024/01/14 09:14:40;;;;;;;9.85;1.60;;;3.20;99.90;;;;;;6237746;23;20649;-80
2024/01/14 09:17:05;;;;;;;7.40;1.27;;;3.00;99.90;;;;;;6237125;23;20103;-79
2024/01/14 09:19:31;;;;;;;7.35;1.30;;;2.70;99.90;;;;;;6238249;23;20019;-79
2024/01/14 09:21:57;;;;;;;9.35;1.42;;;3.50;99.90;;;;;;6239325;23;20019;-79
2024/01/14 09:24:22;;;;;;;8.02;1.20;;;3.60;99.90;;;;;;6212177;23;20436;-79
2024/01/14 09:26:48;;;;;;;12.20;1.40;;;3.60;99.90;;;;;;6209219;23;20008;-80
2024/01/14 09:29:14;;;;;;;6.82;1.40;;;3.50;99.90;;;;;;6235302;23;20040;-80
2024/01/14 09:31:39;;;;;;;7.73;1.37;;;2.90;99.90;;;;;;6236735;23;20087;-80
2024/01/14 09:34:05;;;;;;;13.70;2.83;;;3.70;99.90;;;;;;6237629;23;20284;-80
2024/01/14 09:36:33;;;;;;;11.07;1.48;;;3.10;99.90;;;;;;6235107;23;20243;-79
2024/01/14 09:38:59;;;;;;;13.02;1.50;;;3.80;99.90;;;;;;6236762;23;20078;-79
2024/01/14 09:41:34;;;;;;;10.25;1.63;;;3.90;99.90;;;;;;6236049;23;20038;-79
2024/01/14 09:44:01;;;;;;;9.48;1.58;;;3.90;99.90;;;;;;6237211;23;20039;-80
2024/01/14 09:46:27;;;;;;;10.25;2.05;;;3.20;99.90;;;;;;6211428;23;20035;-79
2024/01/14 09:48:55;;;;;;;15.77;1.80;;;3.30;99.90;;;;;;6232933;23;20303;-79
2024/01/14 09:51:31;;;;;;;10.90;2.15;;;3.90;99.90;;;;;;6230580;23;20024;-79
2024/01/14 09:54:00;;;;;;;14.02;1.65;;;3.90;99.90;;;;;;6236767;23;20382;-80
2024/01/14 09:56:30;;;;;;;10.65;2.03;;;3.90;99.90;;;;;;6235293;23;20453;-80
2024/01/14 09:59:01;;;;;;;9.50;1.70;;;3.60;99.90;;;;;;6236721;23;20078;-79
2024/01/14 10:01:31;;;;;;;10.80;2.00;;;3.70;99.90;;;;;;6237671;23;20016;-78
2024/01/14 10:04:01;;;;;;;15.45;2.60;;;3.60;99.90;;;;;;6236791;23;20016;-78
2024/01/14 10:06:27;;;;;;;11.40;1.55;;;4.10;99.90;;;;;;6236744;23;20012;-78
2024/01/14 10:08:54;;;;;;;14.65;1.90;;;4.30;99.90;;;;;;6211403;23;20054;-79
2024/01/14 10:11:19;;;;;;;;;;;4.00;99.90;;;;;;6236142;23;20008;-80
2024/01/14 10:13:46;;;;;;;9.07;1.73;;;4.30;99.90;;;;;;6235437;23;19990;-79
2024/01/14 10:16:15;;;;;;;5.68;1.52;;;4.20;99.90;;;;;;6238930;23;20113;-80
2024/01/14 10:18:41;;;;;;;7.47;1.67;;;4.00;99.90;;;;;;6238768;23;20043;-80
2024/01/14 10:21:06;;;;;;;8.30;1.60;;;4.00;99.90;;;;;;6235057;23;20043;-80
2024/01/14 10:23:32;;;;;;;15.00;2.67;;;4.50;99.90;;;;;;6235806;23;20023;-80
2024/01/14 10:26:01;;;;;;;7.63;2.30;;;4.30;99.90;;;;;;6237275;23;20231;-80
2024/01/14 10:28:35;;;;;;;12.40;1.95;;;4.70;99.90;;;;;;6237556;23;20044;-81
2024/01/14 10:31:06;;;;;;;9.45;1.50;;;4.40;99.90;;;;;;6238600;23;20445;-81
2024/01/14 10:33:33;;;;;;;11.65;1.80;;;4.30;99.90;;;;;;6236522;23;20019;-82
2024/01/14 10:35:59;;;;;;;14.35;1.80;;;4.50;99.90;;;;;;6210080;23;20095;-82
2024/01/14 10:38:25;;;;;;;15.07;2.15;;;4.40;99.90;;;;;;6236062;23;20016;-81
2024/01/14 10:40:52;;;;;;;14.73;2.05;;;5.00;99.90;;;;;;6237648;23;20345;-81
2024/01/14 10:43:24;;;;;;;11.23;1.90;;;4.80;99.90;;;;;;6207783;23;20357;-81
2024/01/14 10:45:50;;;;;;;9.85;1.85;;;5.10;99.90;;;;;;6234861;23;20046;-81
2024/01/14 10:48:18;;;;;;;11.20;2.08;;;4.70;99.90;;;;;;6235557;23;20016;-81
2024/01/14 10:50:46;;;;;;;8.13;1.27;;;4.90;99.90;;;;;;6211034;23;20027;-81
2024/01/14 10:53:41;;;;;;;10.80;1.70;;;5.10;99.90;;;;;;6236191;23;20729;-81
2024/01/14 10:56:14;;;;;;;9.27;1.52;;;5.00;99.90;;;;;;6230981;23;20073;-81
2024/01/14 10:58:41;;;;;;;9.63;1.65;;;4.80;99.90;;;;;;6237707;23;20016;-81
2024/01/14 11:01:08;;;;;;;13.55;2.40;;;5.10;99.90;;;;;;6238022;23;20012;-81
2024/01/14 11:03:35;;;;;;;13.23;1.77;;;5.00;99.90;;;;;;6238574;23;20054;-80
2024/01/14 11:06:01;;;;;;;;;;;5.20;99.90;;;;;;6239558;23;20323;-87
2024/01/14 11:08:27;;;;;;;12.07;1.55;;;5.40;99.90;;;;;;6212877;23;19912;-82
2024/01/14 11:10:53;;;;;;;7.40;1.70;;;5.50;99.90;;;;;;6240476;23;20062;-82
2024/01/14 11:13:21;;;;;;;;;;;5.50;99.90;;;;;;6239020;23;20047;-82
2024/01/14 11:15:53;;;;;;;;;;;5.70;99.90;;;;;;6211852;23;20324;-82
2024/01/14 11:18:28;;;;;;;10.40;1.58;;;5.60;99.90;;;;;;6238177;23;19965;-82
2024/01/14 11:21:24;;;;;;;7.82;1.40;;;5.70;99.90;;;;;;6237602;23;20031;-82
2024/01/14 11:23:50;;;;;;;12.27;2.20;;;5.70;99.90;;;;;;6235195;23;20395;-82
2024/01/14 11:26:16;;;;;;;8.43;1.87;;;5.50;99.90;;;;;;6238765;23;20016;-81
2024/01/14 11:28:46;;;;;;;8.38;1.58;;;5.50;99.90;;;;;;6239049;22;20297;-81
2024/01/14 11:31:11;;;;;;;7.72;1.30;;;5.70;99.90;;;;;;6234901;23;20066;-81
2024/01/14 11:33:46;;;;;;;12.30;1.55;;;5.50;99.90;;;;;;6213386;23;20016;-80
2024/01/14 11:36:13;;;;;;;10.65;1.75;;;5.30;99.90;;;;;;6237885;23;20449;-80
2024/01/14 11:38:45;;;;;;;9.57;1.45;;;5.50;99.90;;;;;;6239816;23;20012;-80
2024/01/14 11:41:28;;;;;;;5.60;1.52;;;5.20;99.90;;;;;;6238830;23;20016;-79
2024/01/14 11:43:57;;;;;;;7.47;1.40;;;5.50;99.90;;;;;;6236393;23;20020;-79
2024/01/14 11:46:36;;;;;;;13.68;1.77;;;5.40;99.90;;;;;;6236976;23;20016;-79
2024/01/14 11:49:17;;;;;;;12.68;2.17;;;5.50;99.90;;;;;;6237680;23;20031;-79
2024/01/14 11:51:57;;;;;;;10.35;1.88;;;5.70;99.90;;;;;;6237673;23;20019;-79
2024/01/14 11:54:24;;;;;;;6.18;1.30;;;6.10;99.90;;;;;;6238692;23;20016;-79
2024/01/14 11:56:50;;;;;;;6.53;1.60;;;6.10;99.90;;;;;;6238426;23;20020;-78
2024/01/14 11:59:17;;;;;;;8.00;1.80;;;6.50;99.90;;;;;;6238796;23;20027;-78
2024/01/14 12:01:43;;;;;;;8.30;1.92;;;6.20;99.90;;;;;;6239763;23;20016;-79
2024/01/14 12:04:09;;;;;;;6.80;1.20;;;6.40;99.90;;;;;;6238290;23;20020;-79
2024/01/14 12:06:45;;;;;;;10.52;1.58;;;6.20;99.90;;;;;;6237964;23;20018;-79
2024/01/14 12:09:15;;;;;;;9.02;1.70;;;6.40;99.90;;;;;;6237998;23;20012;-79
2024/01/14 12:11:42;;;;;;;9.85;1.58;;;6.40;99.90;;;;;;6213311;23;20020;-79
2024/01/14 12:14:08;;;;;;;9.30;1.45;;;6.40;99.90;;;;;;6239251;23;20510;-79
2024/01/14 12:16:35;;;;;;;5.75;1.23;;;6.60;99.90;;;;;;6239156;23;20027;-79
2024/01/14 12:19:12;;;;;;;8.23;1.52;;;6.40;99.90;;;;;;6240691;23;20016;-79
2024/01/14 12:21:38;;;;;;;7.43;1.30;;;6.20;99.90;;;;;;6239899;23;20027;-79
2024/01/14 12:24:04;;;;;;;6.53;1.67;;;5.90;99.90;;;;;;6240051;23;20028;-79
2024/01/14 12:26:30;;;;;;;6.72;1.38;;;6.00;99.90;;;;;;6238270;23;20702;-79
2024/01/14 12:28:56;;;;;;;10.30;1.88;;;6.00;99.90;;;;;;6239924;23;20016;-79
2024/01/14 12:31:25;;;;;;;7.20;1.42;;;5.80;99.90;;;;;;6240795;23;20015;-79
2024/01/14 12:33:51;;;;;;;4.72;1.10;;;5.80;99.90;;;;;;6238854;23;20008;-79
2024/01/14 12:36:18;;;;;;;7.55;1.27;;;5.70;99.90;;;;;;6240254;23;20043;-79
2024/01/14 12:38:44;;;;;;;10.55;1.73;;;5.80;99.90;;;;;;6240855;23;20008;-79
2024/01/14 12:41:11;;;;;;;8.98;1.45;;;5.70;99.90;;;;;;6241132;23;20048;-79
2024/01/14 12:43:37;;;;;;;7.85;1.10;;;5.70;99.90;;;;;;6240253;23;20019;-78
2024/01/14 12:46:03;;;;;;;11.63;1.67;;;5.80;99.90;;;;;;6238631;23;20008;-78
2024/01/14 12:48:29;;;;;;;;;;;5.90;99.90;;;;;;6238366;23;20281;-79
2024/01/14 12:50:59;;;;;;;6.38;1.35;;;5.70;99.90;;;;;;6237303;23;19919;-79